sensor_id;sensor_type;location;lat;lon;timestamp;pressure;altitude;pressure_sealevel;temperature;humidity
70925;BME280;58577;52.410;13.242;2023-01-25T00:02:27;-12332.59;;;0.16;97.11
70925;BME280;58577;52.410;13.242;2023-01-25T00:05:13;-12332.88;;;0.17;97.38
70925;BME280;58577;52.410;13.242;2023-01-25T00:07:59;-12332.41;;;0.15;nan
70925;BME280;58577;52.410;13.242;2023-01-25T00:10:50;-12331.88;;;0.12;97.60
70925;BME280;58577;52.410;13.242;2023-01-25T00:13:36;-12331.22;;;0.08;97.73
70925;BME280;58577;52.410;13.242;2023-01-25T00:16:22;-12332.69;;;0.16;96.86
70925;BME280;58577;52.410;13.242;2023-01-25T00:19:09;-12334.78;;;0.28;97.06
70925;BME280;58577;52.410;13.242;2023-01-25T00:21:55;-12337.22;;;0.42;95.42
70925;BME280;58577;52.410;13.242;2023-01-25T00:24:41;-12334.97;;;0.29;95.42
70925;BME280;58577;52.410;13.242;2023-01-25T00:27:26;-12336.78;;;0.39;95.18
70925;BME280;58577;52.410;13.242;2023-01-25T00:30:13;-12332.69;;;0.16;97.53
70925;BME280;58577;52.410;13.242;2023-01-25T00:39:18;-12331.41;;;0.09;98.73
70925;BME280;58577;52.410;13.242;2023-01-25T00:42:07;-12331.41;;;0.09;98.46
70925;BME280;58577;52.410;13.242;2023-01-25T00:44:53;-12330.88;;;0.06;99.16
70925;BME280;58577;52.410;13.242;2023-01-25T00:47:39;-12330.16;;;0.02;99.45
70925;BME280;58577;52.410;13.242;2023-01-25T00:50:24;-12329.69;;;-0.01;99.04
70925;BME280;58577;52.410;13.242;2023-01-25T00:53:10;-12328.69;;;-0.06;98.71
70925;BME280;58577;52.410;13.242;2023-01-25T00:55:56;-12328.50;;;-0.07;99.69
70925;BME280;58577;52.410;13.242;2023-01-25T00:58:42;-12330.16;;;0.02;99.54
70925;BME280;58577;52.410;13.242;2023-01-25T01:01:29;-12329.41;;;-0.02;98.47
70925;BME280;58577;52.410;13.242;2023-01-25T01:04:15;-12329.06;;;-0.04;99.70
70925;BME280;58577;52.410;13.242;2023-01-25T01:07:01;-12331.97;;;0.12;97.23
70925;BME280;58577;52.410;13.242;2023-01-25T01:09:47;-12331.06;;;0.07;98.85
70925;BME280;58577;52.410;13.242;2023-01-25T01:12:32;-12329.59;;;-0.01;99.34
70925;BME280;58577;52.410;13.242;2023-01-25T01:15:18;-12329.31;;;-0.03;99.57
70925;BME280;58577;52.410;13.242;2023-01-25T01:18:04;-12332.41;;;0.15;98.77
70925;BME280;58577;52.410;13.242;2023-01-25T01:20:51;-12329.97;;;0.01;98.93
70925;BME280;58577;52.410;13.242;2023-01-25T01:23:40;-12331.50;;;0.10;99.16
70925;BME280;58577;52.410;13.242;2023-01-25T01:26:26;-12334.31;;;0.26;97.53
70925;BME280;58577;52.410;13.242;2023-01-25T01:29:12;-12333.13;;;0.19;97.35
70925;BME280;58577;52.410;13.242;2023-01-25T01:31:58;-12331.06;;;0.07;98.86
70925;BME280;58577;52.410;13.242;2023-01-25T01:34:45;-12337.06;;;0.41;97.71
70925;BME280;58577;52.410;13.242;2023-01-25T01:37:31;-12332.69;;;0.16;98.74
70925;BME280;58577;52.410;13.242;2023-01-25T01:40:17;-12330.59;;;0.05;99.35
70925;BME280;58577;52.410;13.242;2023-01-25T01:43:16;-12329.78;;;0.00;100.00
70925;BME280;58577;52.410;13.242;2023-01-25T01:46:04;-12332.97;;;0.18;99.92
70925;BME280;58577;52.410;13.242;2023-01-25T01:52:09;-12334.59;;;0.27;99.64
70925;BME280;58577;52.410;13.242;2023-01-25T01:55:07;-12334.06;;;0.24;98.44
70925;BME280;58577;52.410;13.242;2023-01-25T01:57:56;-12332.41;;;0.15;99.82
70925;BME280;58577;52.410;13.242;2023-01-25T02:00:43;-12330.22;;;0.03;100.00
70925;BME280;58577;52.410;13.242;2023-01-25T02:03:30;-12330.59;;;0.05;100.00
70925;BME280;58577;52.410;13.242;2023-01-25T02:06:26;-12334.31;;;0.26;99.45
70925;BME280;58577;52.410;13.242;2023-01-25T02:09:17;-12334.50;;;0.27;98.84
70925;BME280;58577;52.410;13.242;2023-01-25T02:12:05;-12331.97;;;0.12;99.41
70925;BME280;58577;52.410;13.242;2023-01-25T02:14:52;-12335.22;;;0.31;99.65
70925;BME280;58577;52.410;13.242;2023-01-25T02:17:39;-12331.59;;;0.10;99.68
70925;BME280;58577;52.410;13.242;2023-01-25T02:20:37;-12336.31;;;0.37;98.94
70925;BME280;58577;52.410;13.242;2023-01-25T02:23:53;-12335.22;;;0.31;98.17
70925;BME280;58577;52.410;13.242;2023-01-25T02:26:41;-12332.59;;;0.16;99.74
70925;BME280;58577;52.410;13.242;2023-01-25T02:29:28;-12330.78;;;0.06;100.00
70925;BME280;58577;52.410;13.242;2023-01-25T02:32:14;-12330.59;;;0.05;100.00
70925;BME280;58577;52.410;13.242;2023-01-25T02:35:00;-12330.88;;;0.06;100.00
70925;BME280;58577;52.410;13.242;2023-01-25T02:37:46;-12329.88;;;0.01;100.00
70925;BME280;58577;52.410;13.242;2023-01-25T02:40:35;-12331.50;;;0.10;100.00
70925;BME280;58577;52.410;13.242;2023-01-25T02:43:31;-12329.31;;;-0.03;100.00
70925;BME280;58577;52.410;13.242;2023-01-25T02:46:35;-12328.69;;;-0.06;100.00
70925;BME280;58577;52.410;13.242;2023-01-25T02:49:21;-12330.06;;;0.02;100.00
70925;BME280;58577;52.410;13.242;2023-01-25T02:52:08;-12329.59;;;-0.01;100.00
70925;BME280;58577;52.410;13.242;2023-01-25T02:54:54;-12330.78;;;0.06;100.00
70925;BME280;58577;52.410;13.242;2023-01-25T02:57:40;-12331.13;;;0.08;100.00
70925;BME280;58577;52.410;13.242;2023-01-25T03:00:26;-12333.59;;;0.22;100.00
70925;BME280;58577;52.410;13.242;2023-01-25T03:03:12;-12334.78;;;0.28;100.00
70925;BME280;58577;52.410;13.242;2023-01-25T03:05:58;-12331.59;;;0.10;100.00
70925;BME280;58577;52.410;13.242;2023-01-25T03:08:44;-12333.22;;;0.19;100.00
70925;BME280;58577;52.410;13.242;2023-01-25T03:11:32;-12331.22;;;0.08;100.00
70925;BME280;58577;52.410;13.242;2023-01-25T03:14:19;-12330.88;;;0.06;100.00
70925;BME280;58577;52.410;13.242;2023-01-25T03:17:04;-12330.59;;;0.05;100.00
70925;BME280;58577;52.410;13.242;2023-01-25T03:19:50;-12335.31;;;0.31;100.00
70925;BME280;58577;52.410;13.242;2023-01-25T03:22:38;-12333.59;;;0.22;100.00
70925;BME280;58577;52.410;13.242;2023-01-25T03:25:24;-12332.78;;;0.17;100.00
70925;BME280;58577;52.410;13.242;2023-01-25T03:28:20;-12332.97;;;0.18;100.00
70925;BME280;58577;52.410;13.242;2023-01-25T03:31:09;-12332.13;;;0.13;100.00
70925;BME280;58577;52.410;13.242;2023-01-25T03:33:55;-12330.78;;;0.06;100.00
70925;BME280;58577;52.410;13.242;2023-01-25T03:36:45;-12332.50;;;0.15;100.00
70925;BME280;58577;52.410;13.242;2023-01-25T03:39:31;-12331.31;;;0.09;100.00
70925;BME280;58577;52.410;13.242;2023-01-25T03:42:19;-12331.13;;;0.08;100.00
70925;BME280;58577;52.410;13.242;2023-01-25T03:45:07;-12334.50;;;0.27;100.00
70925;BME280;58577;52.410;13.242;2023-01-25T03:47:53;-12336.97;;;0.41;100.00
70925;BME280;58577;52.410;13.242;2023-01-25T03:50:39;-12336.88;;;0.40;100.00
70925;BME280;58577;52.410;13.242;2023-01-25T03:53:27;-12334.31;;;0.26;100.00
70925;BME280;58577;52.410;13.242;2023-01-25T03:56:18;-12334.06;;;0.24;100.00
70925;BME280;58577;52.410;13.242;2023-01-25T03:59:17;-12332.78;;;0.17;100.00
70925;BME280;58577;52.410;13.242;2023-01-25T04:02:04;-12332.06;;;0.13;100.00
70925;BME280;58577;52.410;13.242;2023-01-25T04:04:50;-12333.06;;;0.18;100.00
70925;BME280;58577;52.410;13.242;2023-01-25T04:07:38;-12332.13;;;0.13;100.00
70925;BME280;58577;52.410;13.242;2023-01-25T04:10:25;-12332.50;;;0.15;100.00
70925;BME280;58577;52.410;13.242;2023-01-25T04:13:10;-12331.69;;;0.11;100.00
70925;BME280;58577;52.410;13.242;2023-01-25T04:15:56;-12332.97;;;0.18;100.00
70925;BME280;58577;52.410;13.242;2023-01-25T04:19:05;-12335.22;;;0.31;100.00
70925;BME280;58577;52.410;13.242;2023-01-25T04:21:51;-12335.50;;;0.32;100.00
70925;BME280;58577;52.410;13.242;2023-01-25T04:24:37;-12333.41;;;0.21;100.00
70925;BME280;58577;52.410;13.242;2023-01-25T04:27:23;-12332.22;;;0.14;100.00
70925;BME280;58577;52.410;13.242;2023-01-25T04:30:32;-12333.13;;;0.19;100.00
70925;BME280;58577;52.410;13.242;2023-01-25T04:33:19;-12332.13;;;0.13;100.00
70925;BME280;58577;52.410;13.242;2023-01-25T04:36:06;-12332.13;;;0.13;100.00
70925;BME280;58577;52.410;13.242;2023-01-25T04:38:52;-12334.06;;;0.24;100.00
70925;BME280;58577;52.410;13.242;2023-01-25T04:41:38;-12332.31;;;0.14;100.00
70925;BME280;58577;52.410;13.242;2023-01-25T04:44:24;-12332.31;;;0.14;100.00
70925;BME280;58577;52.410;13.242;2023-01-25T04:47:10;-12333.22;;;0.19;100.00
70925;BME280;58577;52.410;13.242;2023-01-25T04:49:56;-12332.88;;;0.17;100.00
70925;BME280;58577;52.410;13.242;2023-01-25T04:52:46;-12332.59;;;0.16;100.00
70925;BME280;58577;52.410;13.242;2023-01-25T04:55:33;-12332.13;;;0.13;100.00
70925;BME280;58577;52.410;13.242;2023-01-25T04:58:18;-12331.78;;;0.11;100.00
70925;BME280;58577;52.410;13.242;2023-01-25T05:01:04;-12331.22;;;0.08;100.00
70925;BME280;58577;52.410;13.242;2023-01-25T05:03:51;-12336.31;;;0.37;100.00
70925;BME280;58577;52.410;13.242;2023-01-25T05:06:49;-12334.50;;;0.27;100.00
70925;BME280;58577;52.410;13.242;2023-01-25T05:09:35;-12335.50;;;0.32;100.00
70925;BME280;58577;52.410;13.242;2023-01-25T05:12:21;-12333.97;;;0.24;100.00
70925;BME280;58577;52.410;13.242;2023-01-25T05:15:13;-12336.41;;;0.37;100.00
70925;BME280;58577;52.410;13.242;2023-01-25T05:17:59;-12336.31;;;0.37;100.00
70925;BME280;58577;52.410;13.242;2023-01-25T05:20:44;-12334.97;;;0.29;100.00
70925;BME280;58577;52.410;13.242;2023-01-25T05:23:30;-12334.31;;;0.26;100.00
70925;BME280;58577;52.410;13.242;2023-01-25T05:26:17;-12335.06;;;0.30;100.00
70925;BME280;58577;52.410;13.242;2023-01-25T05:29:22;-12336.31;;;0.37;100.00
70925;BME280;58577;52.410;13.242;2023-01-25T05:32:18;-12333.50;;;0.21;100.00
70925;BME280;58577;52.410;13.242;2023-01-25T05:35:05;-12334.69;;;0.28;100.00
70925;BME280;58577;52.410;13.242;2023-01-25T05:37:57;-12334.13;;;0.25;100.00
70925;BME280;58577;52.410;13.242;2023-01-25T05:40:44;-12333.78;;;0.23;100.00
70925;BME280;58577;52.410;13.242;2023-01-25T05:43:30;-12333.59;;;0.22;100.00
70925;BME280;58577;52.410;13.242;2023-01-25T05:46:16;-12335.41;;;0.32;100.00
70925;BME280;58577;52.410;13.242;2023-01-25T05:49:02;-12336.13;;;0.36;100.00
70925;BME280;58577;52.410;13.242;2023-01-25T05:51:48;-12335.50;;;0.32;100.00
70925;BME280;58577;52.410;13.242;2023-01-25T05:54:34;-12337.22;;;0.42;100.00
70925;BME280;58577;52.410;13.242;2023-01-25T05:57:23;-12335.88;;;0.34;100.00
70925;BME280;58577;52.410;13.242;2023-01-25T06:00:10;-12333.06;;;0.18;100.00
70925;BME280;58577;52.410;13.242;2023-01-25T06:03:00;-12334.41;;;0.26;100.00
70925;BME280;58577;52.410;13.242;2023-01-25T06:05:46;-12338.31;;;0.48;100.00
70925;BME280;58577;52.410;13.242;2023-01-25T06:08:32;-12334.78;;;0.28;100.00
70925;BME280;58577;52.410;13.242;2023-01-25T06:11:22;-12337.22;;;0.42;100.00
70925;BME280;58577;52.410;13.242;2023-01-25T06:14:09;-12335.41;;;0.32;100.00
70925;BME280;58577;52.410;13.242;2023-01-25T06:16:55;-12337.06;;;0.41;100.00
70925;BME280;58577;52.410;13.242;2023-01-25T06:19:59;-12336.22;;;0.36;100.00
70925;BME280;58577;52.410;13.242;2023-01-25T06:22:53;-12334.06;;;0.24;100.00
70925;BME280;58577;52.410;13.242;2023-01-25T06:25:39;-12332.88;;;0.17;100.00
70925;BME280;58577;52.410;13.242;2023-01-25T06:28:25;-12334.13;;;0.25;100.00
70925;BME280;58577;52.410;13.242;2023-01-25T06:31:13;-12335.06;;;0.30;100.00
70925;BME280;58577;52.410;13.242;2023-01-25T06:33:59;-12334.06;;;0.24;100.00
70925;BME280;58577;52.410;13.242;2023-01-25T06:36:49;-12333.97;;;0.24;100.00
70925;BME280;58577;52.410;13.242;2023-01-25T06:39:35;-12333.69;;;0.22;100.00
70925;BME280;58577;52.410;13.242;2023-01-25T06:42:22;-12333.69;;;0.22;100.00
70925;BME280;58577;52.410;13.242;2023-01-25T06:45:09;-12333.50;;;0.21;100.00
70925;BME280;58577;52.410;13.242;2023-01-25T06:47:55;-12334.69;;;0.28;100.00
70925;BME280;58577;52.410;13.242;2023-01-25T06:50:40;-12332.13;;;0.13;100.00
70925;BME280;58577;52.410;13.242;2023-01-25T06:53:28;-12332.69;;;0.16;100.00
70925;BME280;58577;52.410;13.242;2023-01-25T06:56:19;-12331.22;;;0.08;100.00
70925;BME280;58577;52.410;13.242;2023-01-25T06:59:06;-12331.97;;;0.12;100.00
70925;BME280;58577;52.410;13.242;2023-01-25T07:01:52;-12332.41;;;0.15;100.00
70925;BME280;58577;52.410;13.242;2023-01-25T07:04:37;-12332.59;;;0.16;100.00
70925;BME280;58577;52.410;13.242;2023-01-25T07:07:23;-12329.97;;;0.01;100.00
70925;BME280;58577;52.410;13.242;2023-01-25T07:10:09;-12328.69;;;-0.06;100.00
70925;BME280;58577;52.410;13.242;2023-01-25T07:12:55;-12327.50;;;-0.13;100.00
70925;BME280;58577;52.410;13.242;2023-01-25T07:15:41;-12330.78;;;0.06;100.00
70925;BME280;58577;52.410;13.242;2023-01-25T07:18:28;-12329.97;;;0.01;100.00
70925;BME280;58577;52.410;13.242;2023-01-25T07:21:16;-12332.13;;;0.13;100.00
70925;BME280;58577;52.410;13.242;2023-01-25T07:24:03;-12330.22;;;0.03;100.00
70925;BME280;58577;52.410;13.242;2023-01-25T07:26:49;-12331.88;;;0.12;100.00
70925;BME280;58577;52.410;13.242;2023-01-25T07:29:35;-12334.50;;;0.27;100.00
70925;BME280;58577;52.410;13.242;2023-01-25T07:32:21;-12332.50;;;0.15;100.00
70925;BME280;58577;52.410;13.242;2023-01-25T07:35:07;-12331.88;;;0.12;100.00
70925;BME280;58577;52.410;13.242;2023-01-25T07:37:54;-12330.16;;;0.02;100.00
70925;BME280;58577;52.410;13.242;2023-01-25T07:40:40;-12327.16;;;-0.15;100.00
70925;BME280;58577;52.410;13.242;2023-01-25T07:43:26;-12331.06;;;0.07;100.00
70925;BME280;58577;52.410;13.242;2023-01-25T07:46:12;-12330.69;;;0.05;100.00
70925;BME280;58577;52.410;13.242;2023-01-25T07:48:58;-12333.13;;;0.19;100.00
70925;BME280;58577;52.410;13.242;2023-01-25T07:51:44;-12329.88;;;0.01;100.00
70925;BME280;58577;52.410;13.242;2023-01-25T07:54:30;-12330.69;;;0.05;100.00
70925;BME280;58577;52.410;13.242;2023-01-25T07:57:16;-12330.41;;;0.04;100.00
70925;BME280;58577;52.410;13.242;2023-01-25T08:00:02;-12330.41;;;0.04;100.00
70925;BME280;58577;52.410;13.242;2023-01-25T08:02:58;-12330.16;;;0.02;100.00
70925;BME280;58577;52.410;13.242;2023-01-25T08:05:44;-12330.88;;;0.06;100.00
70925;BME280;58577;52.410;13.242;2023-01-25T08:08:31;-12328.88;;;-0.05;100.00
70925;BME280;58577;52.410;13.242;2023-01-25T08:11:21;-12330.22;;;0.03;100.00
70925;BME280;58577;52.410;13.242;2023-01-25T08:14:07;-12333.31;;;0.20;100.00
70925;BME280;58577;52.410;13.242;2023-01-25T08:16:53;-12332.69;;;0.16;100.00
70925;BME280;58577;52.410;13.242;2023-01-25T08:19:39;-12330.59;;;0.05;100.00
70925;BME280;58577;52.410;13.242;2023-01-25T08:22:25;-12331.31;;;0.09;100.00
70925;BME280;58577;52.410;13.242;2023-01-25T08:25:11;-12331.22;;;0.08;100.00
70925;BME280;58577;52.410;13.242;2023-01-25T08:27:57;-12332.69;;;0.16;100.00
70925;BME280;58577;52.410;13.242;2023-01-25T08:30:43;-12333.88;;;0.23;100.00
70925;BME280;58577;52.410;13.242;2023-01-25T08:33:28;-12330.69;;;0.05;100.00
70925;BME280;58577;52.410;13.242;2023-01-25T08:36:16;-12331.13;;;0.08;100.00
70925;BME280;58577;52.410;13.242;2023-01-25T08:39:05;-12330.50;;;0.04;100.00
70925;BME280;58577;52.410;13.242;2023-01-25T08:41:51;-12333.06;;;0.18;100.00
70925;BME280;58577;52.410;13.242;2023-01-25T08:44:37;-12331.50;;;0.10;100.00
70925;BME280;58577;52.410;13.242;2023-01-25T08:47:23;-12329.97;;;0.01;100.00
70925;BME280;58577;52.410;13.242;2023-01-25T08:50:09;-12329.59;;;-0.01;100.00
70925;BME280;58577;52.410;13.242;2023-01-25T08:52:55;-12331.41;;;0.09;100.00
70925;BME280;58577;52.410;13.242;2023-01-25T08:55:41;-12332.41;;;0.15;100.00
70925;BME280;58577;52.410;13.242;2023-01-25T08:58:27;-12330.31;;;0.03;100.00
70925;BME280;58577;52.410;13.242;2023-01-25T09:01:15;-12330.88;;;0.06;100.00
70925;BME280;58577;52.410;13.242;2023-01-25T09:04:01;-12332.69;;;0.16;100.00
70925;BME280;58577;52.410;13.242;2023-01-25T09:06:47;-12332.78;;;0.17;100.00
70925;BME280;58577;52.410;13.242;2023-01-25T09:09:33;-12332.31;;;0.14;100.00
70925;BME280;58577;52.410;13.242;2023-01-25T09:12:19;-12333.06;;;0.18;100.00
70925;BME280;58577;52.410;13.242;2023-01-25T09:15:05;-12331.41;;;0.09;100.00
70925;BME280;58577;52.410;13.242;2023-01-25T09:17:52;-12330.50;;;0.04;100.00
70925;BME280;58577;52.410;13.242;2023-01-25T09:20:38;-12331.88;;;0.12;100.00
70925;BME280;58577;52.410;13.242;2023-01-25T09:23:24;-12328.22;;;-0.09;100.00
70925;BME280;58577;52.410;13.242;2023-01-25T09:26:11;-12328.22;;;-0.09;100.00
70925;BME280;58577;52.410;13.242;2023-01-25T09:28:59;-12330.31;;;0.03;100.00
70925;BME280;58577;52.410;13.242;2023-01-25T09:31:45;-12328.88;;;-0.05;100.00
70925;BME280;58577;52.410;13.242;2023-01-25T09:34:49;-12330.31;;;0.03;100.00
70925;BME280;58577;52.410;13.242;2023-01-25T09:37:35;-12331.41;;;0.09;100.00
70925;BME280;58577;52.410;13.242;2023-01-25T09:40:22;-12331.78;;;0.11;100.00
70925;BME280;58577;52.410;13.242;2023-01-25T09:50:06;-12332.13;;;0.13;100.00
70925;BME280;58577;52.410;13.242;2023-01-25T09:56:11;-12326.97;;;-0.16;100.00
70925;BME280;58577;52.410;13.242;2023-01-25T09:59:18;-12324.69;;;-0.29;100.00
70925;BME280;58577;52.410;13.242;2023-01-25T10:02:19;-12326.31;;;-0.20;100.00
70925;BME280;58577;52.410;13.242;2023-01-25T10:05:21;-12328.41;;;-0.08;100.00
70925;BME280;58577;52.410;13.242;2023-01-25T10:11:25;-12328.97;;;-0.05;100.00
70925;BME280;58577;52.410;13.242;2023-01-25T10:14:14;-12329.16;;;-0.04;100.00
70925;BME280;58577;52.410;13.242;2023-01-25T10:17:05;-12328.88;;;-0.05;100.00
70925;BME280;58577;52.410;13.242;2023-01-25T10:23:34;-12325.97;;;-0.22;100.00
70925;BME280;58577;52.410;13.242;2023-01-25T10:26:34;-12325.97;;;-0.22;100.00
70925;BME280;58577;52.410;13.242;2023-01-25T10:29:25;-12329.31;;;-0.03;100.00
70925;BME280;58577;52.410;13.242;2023-01-25T10:32:21;-12327.59;;;-0.12;100.00
70925;BME280;58577;52.410;13.242;2023-01-25T10:35:18;-12327.41;;;-0.13;100.00
70925;BME280;58577;52.410;13.242;2023-01-25T10:38:10;-12328.97;;;-0.05;100.00
70925;BME280;58577;52.410;13.242;2023-01-25T10:41:13;-12327.97;;;-0.10;100.00
70925;BME280;58577;52.410;13.242;2023-01-25T10:44:01;-12326.13;;;-0.21;100.00
70925;BME280;58577;52.410;13.242;2023-01-25T10:49:56;-12327.97;;;-0.10;100.00
70925;BME280;58577;52.410;13.242;2023-01-25T10:52:58;-12328.22;;;-0.09;100.00
70925;BME280;58577;52.410;13.242;2023-01-25T10:59:25;-12328.16;;;-0.09;100.00
70925;BME280;58577;52.410;13.242;2023-01-25T11:05:33;-12330.31;;;0.03;100.00
70925;BME280;58577;52.410;13.242;2023-01-25T11:08:25;-12328.31;;;-0.08;100.00
70925;BME280;58577;52.410;13.242;2023-01-25T11:11:31;-12329.78;;;0.00;100.00
70925;BME280;58577;52.410;13.242;2023-01-25T11:14:22;-12328.41;;;-0.08;100.00
70925;BME280;58577;52.410;13.242;2023-01-25T11:17:29;-12328.69;;;-0.06;100.00
70925;BME280;58577;52.410;13.242;2023-01-25T11:20:19;-12329.78;;;0.00;100.00
70925;BME280;58577;52.410;13.242;2023-01-25T11:23:21;-12328.31;;;-0.08;100.00
70925;BME280;58577;52.410;13.242;2023-01-25T11:26:18;-12327.41;;;-0.13;100.00
70925;BME280;58577;52.410;13.242;2023-01-25T11:29:16;-12328.50;;;-0.07;100.00
70925;BME280;58577;52.410;13.242;2023-01-25T11:32:13;-12332.50;;;0.15;100.00
70925;BME280;58577;52.410;13.242;2023-01-25T11:35:00;-12331.97;;;0.12;100.00
70925;BME280;58577;52.410;13.242;2023-01-25T11:38:06;-12331.41;;;0.09;100.00
70925;BME280;58577;52.410;13.242;2023-01-25T11:44:00;-12331.06;;;0.07;100.00
70925;BME280;58577;52.410;13.242;2023-01-25T11:46:55;-12330.69;;;0.05;100.00
70925;BME280;58577;52.410;13.242;2023-01-25T11:56:05;-12323.88;;;-0.33;100.00
70925;BME280;58577;52.410;13.242;2023-01-25T12:08:48;-12324.88;;;-0.28;100.00
70925;BME280;58577;52.410;13.242;2023-01-25T12:11:51;-12324.13;;;-0.32;100.00
70925;BME280;58577;52.410;13.242;2023-01-25T12:14:56;-12328.78;;;-0.06;100.00
70925;BME280;58577;52.410;13.242;2023-01-25T12:20:52;-12325.97;;;-0.22;100.00
70925;BME280;58577;52.410;13.242;2023-01-25T12:24:07;-12327.31;;;-0.14;100.00
70925;BME280;58577;52.410;13.242;2023-01-25T12:30:33;-12328.16;;;-0.09;100.00
70925;BME280;58577;52.410;13.242;2023-01-25T12:33:14;-12329.50;;;-0.02;100.00
70925;BME280;58577;52.410;13.242;2023-01-25T12:36:21;-12326.41;;;-0.19;100.00
70925;BME280;58577;52.410;13.242;2023-01-25T12:39:17;-12327.78;;;-0.11;100.00
70925;BME280;58577;52.410;13.242;2023-01-25T12:42:39;-12331.06;;;0.07;100.00
70925;BME280;58577;52.410;13.242;2023-01-25T12:45:31;-12329.22;;;-0.03;100.00
70925;BME280;58577;52.410;13.242;2023-01-25T12:48:26;-12330.69;;;0.05;100.00
70925;BME280;58577;52.410;13.242;2023-01-25T12:51:16;-12328.50;;;-0.07;100.00
70925;BME280;58577;52.410;13.242;2023-01-25T12:54:16;-12327.06;;;-0.15;100.00
70925;BME280;58577;52.410;13.242;2023-01-25T12:57:29;-12326.69;;;-0.17;100.00
70925;BME280;58577;52.410;13.242;2023-01-25T13:12:11;-12327.41;;;-0.13;100.00
70925;BME280;58577;52.410;13.242;2023-01-25T13:14:57;-12325.41;;;-0.25;100.00
70925;BME280;58577;52.410;13.242;2023-01-25T13:17:43;-12326.78;;;-0.17;100.00
70925;BME280;58577;52.410;13.242;2023-01-25T13:23:34;-12325.13;;;-0.26;100.00
70925;BME280;58577;52.410;13.242;2023-01-25T13:41:15;-12326.59;;;-0.18;100.00
70925;BME280;58577;52.410;13.242;2023-01-25T13:44:17;-12325.97;;;-0.22;100.00
70925;BME280;58577;52.410;13.242;2023-01-25T13:47:10;-12323.59;;;-0.35;100.00
70925;BME280;58577;52.410;13.242;2023-01-25T13:50:01;-12323.13;;;-0.37;100.00
70925;BME280;58577;52.410;13.242;2023-01-25T13:53:19;-12323.78;;;-0.34;100.00
70925;BME280;58577;52.410;13.242;2023-01-25T13:56:23;-12323.41;;;-0.36;100.00
70925;BME280;58577;52.410;13.242;2023-01-25T13:59:26;-12324.31;;;-0.31;100.00
70925;BME280;58577;52.410;13.242;2023-01-25T14:02:19;-12325.88;;;-0.22;100.00
70925;BME280;58577;52.410;13.242;2023-01-25T14:05:19;-12325.69;;;-0.23;100.00
70925;BME280;58577;52.410;13.242;2023-01-25T14:08:08;-12323.22;;;-0.37;100.00
70925;BME280;58577;52.410;13.242;2023-01-25T14:10:55;-12326.13;;;-0.21;100.00
70925;BME280;58577;52.410;13.242;2023-01-25T14:14:01;-12324.88;;;-0.28;100.00
70925;BME280;58577;52.410;13.242;2023-01-25T14:17:19;-12320.13;;;-0.54;100.00
70925;BME280;58577;52.410;13.242;2023-01-25T14:20:16;-12318.13;;;-0.66;100.00
70925;BME280;58577;52.410;13.242;2023-01-25T14:23:03;-12318.13;;;-0.66;100.00
70925;BME280;58577;52.410;13.242;2023-01-25T14:25:51;-12320.13;;;-0.54;100.00
70925;BME280;58577;52.410;13.242;2023-01-25T14:28:43;-12320.03;;;-0.55;100.00
70925;BME280;58577;52.410;13.242;2023-01-25T14:31:35;-12321.31;;;-0.48;100.00
70925;BME280;58577;52.410;13.242;2023-01-25T14:34:24;-12319.78;;;-0.56;100.00
70925;BME280;58577;52.410;13.242;2023-01-25T14:37:16;-12320.13;;;-0.54;100.00
70925;BME280;58577;52.410;13.242;2023-01-25T14:40:10;-12319.78;;;-0.56;100.00
70925;BME280;58577;52.410;13.242;2023-01-25T14:42:57;-12317.31;;;-0.70;100.00
70925;BME280;58577;52.410;13.242;2023-01-25T14:45:43;-12322.06;;;-0.44;100.00
70925;BME280;58577;52.410;13.242;2023-01-25T14:51:24;-12318.50;;;-0.64;100.00
70925;BME280;58577;52.410;13.242;2023-01-25T14:54:17;-12319.69;;;-0.57;100.00
70925;BME280;58577;52.410;13.242;2023-01-25T14:57:06;-12320.88;;;-0.50;100.00
70925;BME280;58577;52.410;13.242;2023-01-25T14:59:53;-12322.97;;;-0.38;100.00
70925;BME280;58577;52.410;13.242;2023-01-25T15:02:45;-12321.88;;;-0.45;100.00
70925;BME280;58577;52.410;13.242;2023-01-25T15:05:34;-12317.59;;;-0.69;100.00
70925;BME280;58577;52.410;13.242;2023-01-25T15:08:29;-12315.94;;;-0.78;100.00
70925;BME280;58577;52.410;13.242;2023-01-25T15:11:27;-12318.13;;;-0.66;100.00
70925;BME280;58577;52.410;13.242;2023-01-25T15:14:22;-12320.59;;;-0.52;100.00
70925;BME280;58577;52.410;13.242;2023-01-25T15:17:34;-12318.13;;;-0.66;100.00
70925;BME280;58577;52.410;13.242;2023-01-25T15:20:37;-12316.59;;;-0.74;100.00
70925;BME280;58577;52.410;13.242;2023-01-25T15:23:25;-12316.03;;;-0.77;100.00
70925;BME280;58577;52.410;13.242;2023-01-25T15:26:23;-12317.88;;;-0.67;100.00
70925;BME280;58577;52.410;13.242;2023-01-25T15:29:15;-12315.78;;;-0.79;100.00
70925;BME280;58577;52.410;13.242;2023-01-25T15:32:01;-12317.31;;;-0.70;100.00
70925;BME280;58577;52.410;13.242;2023-01-25T15:34:47;-12316.50;;;-0.75;100.00
70925;BME280;58577;52.410;13.242;2023-01-25T15:37:33;-12318.50;;;-0.64;100.00
70925;BME280;58577;52.410;13.242;2023-01-25T15:40:18;-12317.41;;;-0.70;100.00
70925;BME280;58577;52.410;13.242;2023-01-25T15:43:05;-12315.78;;;-0.79;100.00
70925;BME280;58577;52.410;13.242;2023-01-25T15:45:53;-12317.78;;;-0.68;100.00
70925;BME280;58577;52.410;13.242;2023-01-25T15:48:44;-12318.69;;;-0.63;100.00
70925;BME280;58577;52.410;13.242;2023-01-25T15:51:29;-12318.69;;;-0.63;100.00
70925;BME280;58577;52.410;13.242;2023-01-25T15:54:17;-12317.50;;;-0.69;100.00
70925;BME280;58577;52.410;13.242;2023-01-25T15:57:02;-12317.22;;;-0.71;100.00
70925;BME280;58577;52.410;13.242;2023-01-25T15:59:48;-12317.59;;;-0.69;100.00
70925;BME280;58577;52.410;13.242;2023-01-25T16:02:34;-12318.59;;;-0.63;100.00
70925;BME280;58577;52.410;13.242;2023-01-25T16:05:20;-12316.69;;;-0.74;100.00
70925;BME280;58577;52.410;13.242;2023-01-25T16:08:06;-12319.69;;;-0.57;100.00
70925;BME280;58577;52.410;13.242;2023-01-25T16:10:54;-12319.41;;;-0.58;100.00